Time;durP1;ratioP1;P1;durP2;ratioP2;P2;SDS_P1;SDS_P2;PMS_P1;PMS_P2;Temp;Humidity;BMP_temperature;BMP_pressure;BME280_temperature;BME280_humidity;BME280_pressure;Samples;Min_cycle;Max_cycle;Signal;HPM_P1;HPM_P2
2023/10/22 00:02:11;;;;;;;1.45;1.35;;;11.20;99.90;;;;;;5040852;28;20406;-32
2023/10/22 00:04:40;;;;;;;2.05;1.60;;;11.20;99.90;;;;;;5044110;28;20021;-33
2023/10/22 00:07:06;;;;;;;1.90;1.55;;;11.20;99.90;;;;;;5042772;28;20037;-33
2023/10/22 00:09:33;;;;;;;3.40;1.35;;;11.20;99.90;;;;;;5041375;28;20046;-34
2023/10/22 00:11:59;;;;;;;1.75;1.17;;;11.20;99.90;;;;;;5043820;28;21942;-40
2023/10/22 00:14:24;;;;;;;1.25;1.25;;;11.20;99.90;;;;;;5038025;28;20120;-39
2023/10/22 00:16:50;;;;;;;1.13;1.13;;;11.20;99.90;;;;;;5043027;28;20060;-40
2023/10/22 00:19:16;;;;;;;2.13;1.42;;;11.20;99.90;;;;;;5044951;28;20498;-37
2023/10/22 00:21:41;;;;;;;1.63;1.52;;;11.20;99.90;;;;;;5043572;28;20167;-37
2023/10/22 00:24:08;;;;;;;1.55;1.27;;;11.20;99.90;;;;;;4984134;28;1209414;-40
2023/10/22 00:26:33;;;;;;;1.52;1.40;;;11.10;99.90;;;;;;5043053;28;20416;-40
2023/10/22 00:28:59;;;;;;;1.60;1.50;;;11.10;99.90;;;;;;5043957;28;20033;-39
2023/10/22 00:31:24;;;;;;;1.30;1.20;;;11.00;99.90;;;;;;5043374;28;20041;-39
2023/10/22 00:33:50;;;;;;;1.70;1.60;;;11.00;99.90;;;;;;5044505;28;20497;-40
2023/10/22 00:36:16;;;;;;;1.58;1.48;;;11.00;99.90;;;;;;5044198;28;20024;-36
2023/10/22 00:38:42;;;;;;;1.65;1.55;;;11.00;99.90;;;;;;5026804;28;20167;-40
2023/10/22 00:41:07;;;;;;;1.67;1.58;;;11.00;99.90;;;;;;5040142;28;20123;-39
2023/10/22 00:43:33;;;;;;;3.05;1.45;;;10.90;99.90;;;;;;5046429;28;20036;-39
2023/10/22 00:46:00;;;;;;;1.45;1.20;;;10.90;99.90;;;;;;5044457;28;20120;-40
2023/10/22 00:48:26;;;;;;;2.83;1.40;;;11.00;99.90;;;;;;5045129;28;20063;-39
2023/10/22 00:50:52;;;;;;;1.88;1.30;;;11.00;99.90;;;;;;5041012;28;20422;-40
2023/10/22 00:53:19;;;;;;;1.30;1.20;;;11.00;99.90;;;;;;5041988;28;20417;-40
2023/10/22 00:55:45;;;;;;;3.55;1.30;;;11.00;99.90;;;;;;5044008;28;20029;-38
2023/10/22 00:58:20;;;;;;;2.63;1.40;;;10.90;99.90;;;;;;5043173;28;20033;-41
2023/10/22 01:00:46;;;;;;;1.13;1.08;;;10.90;99.90;;;;;;5040592;28;20033;-38
2023/10/22 01:03:12;;;;;;;2.80;1.17;;;10.80;99.90;;;;;;5044911;28;20545;-40
2023/10/22 01:05:38;;;;;;;1.92;1.10;;;10.80;99.90;;;;;;5043831;28;20060;-37
2023/10/22 01:08:07;;;;;;;1.40;1.30;;;10.80;99.90;;;;;;5044077;28;20039;-41
2023/10/22 01:10:33;;;;;;;2.63;1.13;;;10.70;99.90;;;;;;5043633;28;20024;-42
2023/10/22 01:13:03;;;;;;;1.33;1.10;;;10.70;99.90;;;;;;5044646;28;20037;-40
2023/10/22 01:15:29;;;;;;;0.98;0.90;;;10.70;99.90;;;;;;5026384;28;20455;-40
2023/10/22 01:17:55;;;;;;;1.40;1.30;;;10.70;99.90;;;;;;5044109;28;20119;-38
2023/10/22 01:20:21;;;;;;;1.27;0.90;;;10.70;99.90;;;;;;5044268;28;20072;-40
2023/10/22 01:22:47;;;;;;;0.90;0.90;;;10.60;99.90;;;;;;5042809;28;20057;-34
2023/10/22 01:25:13;;;;;;;0.95;0.95;;;10.60;99.90;;;;;;5043734;28;20049;-33
2023/10/22 01:27:39;;;;;;;1.00;1.00;;;10.50;99.90;;;;;;5043113;28;20033;-30
2023/10/22 01:30:11;;;;;;;0.77;0.77;;;10.40;99.90;;;;;;5045112;28;20029;-31
2023/10/22 01:32:37;;;;;;;1.00;0.98;;;10.40;99.90;;;;;;5040296;28;20037;-36
2023/10/22 01:35:03;;;;;;;1.05;1.05;;;10.40;99.90;;;;;;5041977;28;20073;-31
2023/10/22 01:37:29;;;;;;;1.73;1.27;;;10.40;99.90;;;;;;5042832;28;20037;-34
2023/10/22 01:39:57;;;;;;;1.67;0.90;;;10.40;99.90;;;;;;5042793;28;20090;-33
2023/10/22 01:42:23;;;;;;;;;;;10.30;99.90;;;;;;5043017;28;20036;-33
2023/10/22 01:44:49;;;;;;;1.08;1.00;;;10.30;99.90;;;;;;5043483;28;19919;-34
2023/10/22 01:47:14;;;;;;;1.70;1.00;;;10.30;99.90;;;;;;5040074;28;20028;-38
2023/10/22 01:49:41;;;;;;;1.48;1.02;;;10.20;99.90;;;;;;5044733;28;20021;-34
2023/10/22 01:52:07;;;;;;;1.52;0.90;;;10.20;99.90;;;;;;5040250;28;20033;-34
2023/10/22 01:54:34;;;;;;;1.63;1.00;;;10.20;99.90;;;;;;5039780;28;20441;-35
2023/10/22 01:57:00;;;;;;;0.80;0.80;;;10.20;99.90;;;;;;5041665;28;20291;-35
2023/10/22 01:59:26;;;;;;;0.82;0.80;;;10.20;99.90;;;;;;5040141;28;20029;-33
2023/10/22 02:01:51;;;;;;;1.42;0.82;;;10.10;99.90;;;;;;5042156;28;20082;-32
2023/10/22 02:04:17;;;;;;;0.80;0.80;;;10.10;99.90;;;;;;5040939;28;20813;-32
2023/10/22 02:06:43;;;;;;;1.52;1.00;;;10.00;99.90;;;;;;5037953;28;20152;-35
2023/10/22 02:09:14;;;;;;;0.77;0.65;;;10.00;99.90;;;;;;5040367;28;20040;-32
2023/10/22 02:11:40;;;;;;;0.70;0.70;;;10.00;99.90;;;;;;5043204;28;20033;-33
2023/10/22 02:14:06;;;;;;;1.23;0.88;;;9.90;99.90;;;;;;5043050;28;20040;-35
2023/10/22 02:16:32;;;;;;;0.98;0.80;;;9.90;99.90;;;;;;5039575;28;20029;-36
2023/10/22 02:18:58;;;;;;;0.70;0.70;;;9.90;99.90;;;;;;5042427;28;20040;-34
2023/10/22 02:21:26;;;;;;;0.70;0.70;;;10.00;99.90;;;;;;5043538;28;20021;-33
2023/10/22 02:23:52;;;;;;;0.65;0.65;;;10.00;99.90;;;;;;5042299;28;20075;-33
2023/10/22 02:26:19;;;;;;;0.70;0.70;;;10.00;99.90;;;;;;5040154;28;20032;-33
2023/10/22 02:28:54;;;;;;;0.75;0.60;;;10.00;99.90;;;;;;5037352;28;20021;-32
2023/10/22 02:31:20;;;;;;;1.42;1.00;;;10.00;99.90;;;;;;5040368;28;20425;-34
2023/10/22 02:33:46;;;;;;;0.68;0.68;;;9.90;99.90;;;;;;5040298;28;20020;-39
2023/10/22 02:36:12;;;;;;;0.75;0.75;;;10.00;99.90;;;;;;5042443;28;20135;-41
2023/10/22 02:38:39;;;;;;;0.60;0.60;;;10.00;99.90;;;;;;5042711;28;20116;-37
2023/10/22 02:41:05;;;;;;;0.88;0.70;;;9.90;99.90;;;;;;5044278;28;20084;-38
2023/10/22 02:43:31;;;;;;;0.65;0.65;;;9.90;99.90;;;;;;5044567;28;20434;-39
2023/10/22 02:45:57;;;;;;;0.70;0.70;;;9.90;99.90;;;;;;5042020;28;20040;-40
2023/10/22 02:48:23;;;;;;;1.00;0.80;;;9.90;99.90;;;;;;5041305;28;20089;-41
2023/10/22 02:50:49;;;;;;;1.30;0.90;;;9.90;99.90;;;;;;5042231;28;20067;-40
2023/10/22 02:53:16;;;;;;;0.90;0.80;;;9.80;99.90;;;;;;5043214;28;20036;-34
2023/10/22 02:55:42;;;;;;;0.80;0.80;;;9.80;99.90;;;;;;5043038;28;20494;-39
2023/10/22 02:58:08;;;;;;;1.25;0.80;;;9.80;99.90;;;;;;5045803;28;20410;-41
2023/10/22 03:00:35;;;;;;;2.47;0.70;;;9.70;99.90;;;;;;5042772;28;20037;-41
2023/10/22 03:03:01;;;;;;;1.00;0.90;;;9.70;99.90;;;;;;5044828;28;20033;-39
2023/10/22 03:05:27;;;;;;;0.80;0.80;;;9.70;99.90;;;;;;5055754;28;20032;-39
2023/10/22 03:07:53;;;;;;;0.73;0.73;;;9.70;99.90;;;;;;5046229;28;20513;-39
2023/10/22 03:10:18;;;;;;;0.90;0.90;;;9.70;99.90;;;;;;5047059;28;20136;-38
2023/10/22 03:12:44;;;;;;;1.75;0.80;;;9.70;99.90;;;;;;5046504;28;20049;-39
2023/10/22 03:15:09;;;;;;;1.23;0.75;;;9.60;99.90;;;;;;5046461;28;20033;-41
2023/10/22 03:17:36;;;;;;;2.55;0.85;;;9.50;99.90;;;;;;5044860;28;20044;-35
2023/10/22 03:20:03;;;;;;;0.80;0.80;;;9.50;99.90;;;;;;5027672;28;20070;-40
2023/10/22 03:22:30;;;;;;;2.33;0.90;;;9.50;99.90;;;;;;5027605;28;20029;-39
2023/10/22 03:24:56;;;;;;;0.80;0.80;;;9.50;99.90;;;;;;5046267;28;20053;-39
2023/10/22 03:27:21;;;;;;;0.80;0.80;;;9.50;99.90;;;;;;5045203;28;20031;-40
2023/10/22 03:29:47;;;;;;;0.70;0.70;;;9.50;99.90;;;;;;5045057;28;20021;-38
2023/10/22 03:32:12;;;;;;;0.55;0.55;;;9.60;99.90;;;;;;5044008;28;20563;-41
2023/10/22 03:34:38;;;;;;;0.68;0.68;;;9.60;99.90;;;;;;5044908;28;20109;-40
2023/10/22 03:37:08;;;;;;;2.05;1.02;;;9.60;99.90;;;;;;5046987;28;20040;-41
2023/10/22 03:39:36;;;;;;;0.98;0.80;;;9.60;99.90;;;;;;5045220;28;20060;-40
2023/10/22 03:42:02;;;;;;;0.60;0.60;;;9.50;99.90;;;;;;5045965;28;20060;-32
2023/10/22 03:44:29;;;;;;;1.95;0.80;;;9.40;99.90;;;;;;5048118;28;20029;-33
2023/10/22 03:46:55;;;;;;;0.70;0.70;;;9.40;99.90;;;;;;5043083;28;20075;-35
2023/10/22 03:49:22;;;;;;;1.23;0.73;;;9.50;99.90;;;;;;5047031;28;20029;-32
2023/10/22 03:51:48;;;;;;;0.70;0.70;;;9.50;99.90;;;;;;5043800;28;20017;-32
2023/10/22 03:54:14;;;;;;;0.82;0.70;;;9.50;99.90;;;;;;5044510;28;20759;-33
2023/10/22 03:56:40;;;;;;;0.82;0.80;;;9.40;99.90;;;;;;5038684;28;20033;-36
2023/10/22 03:59:06;;;;;;;0.70;0.70;;;9.40;99.90;;;;;;5027206;28;20036;-32
2023/10/22 04:01:31;;;;;;;1.25;1.17;;;9.30;99.90;;;;;;5044000;28;20086;-33
2023/10/22 04:03:57;;;;;;;1.13;1.13;;;9.30;99.90;;;;;;5044283;28;20029;-38
2023/10/22 04:06:23;;;;;;;2.22;0.88;;;9.30;99.90;;;;;;5045200;28;20029;-38
2023/10/22 04:08:48;;;;;;;1.02;0.80;;;9.30;99.90;;;;;;5043776;28;20059;-38
2023/10/22 04:11:18;;;;;;;0.70;0.70;;;9.30;99.90;;;;;;5045108;28;20152;-40
2023/10/22 04:13:44;;;;;;;1.60;0.90;;;9.40;99.90;;;;;;5043441;28;20044;-38
2023/10/22 04:16:17;;;;;;;0.80;0.80;;;9.30;99.90;;;;;;5045448;28;20025;-36
2023/10/22 04:18:43;;;;;;;1.63;0.90;;;9.40;99.90;;;;;;5045718;28;20123;-39
2023/10/22 04:21:15;;;;;;;1.10;1.00;;;9.40;99.90;;;;;;5047516;28;20115;-39
2023/10/22 04:23:41;;;;;;;0.93;0.93;;;9.40;99.90;;;;;;5046614;28;20025;-39
2023/10/22 04:26:13;;;;;;;0.85;0.85;;;9.40;99.90;;;;;;5048099;28;20028;-38
2023/10/22 04:28:43;;;;;;;1.02;1.00;;;9.30;99.90;;;;;;5044836;28;20427;-38
2023/10/22 04:31:09;;;;;;;0.60;0.60;;;9.30;99.90;;;;;;5052327;28;20052;-37
2023/10/22 04:33:36;;;;;;;1.10;0.90;;;9.30;99.90;;;;;;5042745;28;20053;-40
2023/10/22 04:36:01;;;;;;;2.03;0.80;;;9.40;99.90;;;;;;5045164;28;20017;-40
2023/10/22 04:38:28;;;;;;;0.95;0.70;;;9.30;99.90;;;;;;5044947;28;20032;-38
2023/10/22 04:40:54;;;;;;;0.80;0.80;;;9.30;99.90;;;;;;5044255;28;20037;-40
2023/10/22 04:43:20;;;;;;;1.45;0.90;;;9.30;99.90;;;;;;5046354;28;20033;-39
2023/10/22 04:45:46;;;;;;;4.50;0.98;;;9.20;99.90;;;;;;5044564;28;20116;-38
2023/10/22 04:48:12;;;;;;;0.80;0.80;;;9.20;99.90;;;;;;5045442;28;20036;-39
2023/10/22 04:50:38;;;;;;;0.80;0.80;;;9.20;99.90;;;;;;5044476;28;20498;-38
2023/10/22 04:53:04;;;;;;;1.13;1.00;;;9.20;99.90;;;;;;5046396;28;20116;-30
2023/10/22 04:55:30;;;;;;;0.80;0.80;;;9.20;99.90;;;;;;5044545;28;20037;-32
2023/10/22 04:57:56;;;;;;;1.45;1.08;;;9.10;99.90;;;;;;5046218;28;20086;-30
2023/10/22 05:00:22;;;;;;;1.00;1.00;;;9.10;99.90;;;;;;5046974;28;20031;-30
2023/10/22 05:02:49;;;;;;;1.15;1.05;;;9.10;99.90;;;;;;5044631;28;20041;-31
2023/10/22 05:05:14;;;;;;;1.40;1.30;;;9.00;99.90;;;;;;5028432;28;20405;-31
2023/10/22 05:07:40;;;;;;;1.05;1.05;;;8.90;99.90;;;;;;5043707;28;20029;-31
2023/10/22 05:10:06;;;;;;;1.77;1.40;;;8.80;99.90;;;;;;5045251;28;20035;-31
2023/10/22 05:12:32;;;;;;;1.17;1.17;;;8.70;99.90;;;;;;5046936;28;20067;-40
2023/10/22 05:14:58;;;;;;;1.38;1.27;;;8.70;99.90;;;;;;5044766;28;20474;-40
2023/10/22 05:17:24;;;;;;;1.42;1.33;;;8.60;99.90;;;;;;5040998;28;20490;-39
2023/10/22 05:19:50;;;;;;;4.05;1.42;;;8.50;99.90;;;;;;5042286;28;20554;-40
2023/10/22 05:22:21;;;;;;;1.13;1.13;;;8.50;99.90;;;;;;5044695;28;20075;-33
2023/10/22 05:24:48;;;;;;;1.30;1.20;;;8.50;99.90;;;;;;5042050;28;20494;-38
2023/10/22 05:27:15;;;;;;;1.42;1.10;;;8.40;99.90;;;;;;5044186;28;20040;-41
2023/10/22 05:29:42;;;;;;;2.47;1.20;;;8.30;99.90;;;;;;5044096;28;20486;-41
2023/10/22 05:32:08;;;;;;;1.00;1.00;;;8.30;99.90;;;;;;5039985;28;20401;-40
2023/10/22 05:34:33;;;;;;;1.27;1.27;;;8.30;99.90;;;;;;5043277;28;20439;-39
2023/10/22 05:36:59;;;;;;;1.50;1.20;;;8.30;99.90;;;;;;5043216;28;20065;-40
2023/10/22 05:39:25;;;;;;;1.30;1.20;;;8.20;99.90;;;;;;5042767;28;20478;-38
2023/10/22 05:41:51;;;;;;;3.35;1.10;;;8.10;99.90;;;;;;5043724;28;20032;-41
2023/10/22 05:44:18;;;;;;;1.00;1.00;;;8.10;99.90;;;;;;5039677;28;20029;-36
2023/10/22 05:46:44;;;;;;;1.10;1.10;;;8.10;99.90;;;;;;5043242;28;20123;-41
2023/10/22 05:49:11;;;;;;;1.52;1.42;;;8.00;99.90;;;;;;5044054;28;20109;-34
2023/10/22 05:51:38;;;;;;;1.75;1.30;;;8.10;99.90;;;;;;5043268;28;20029;-34
2023/10/22 05:54:04;;;;;;;0.82;0.82;;;8.10;99.90;;;;;;5044097;28;20660;-38
2023/10/22 05:56:32;;;;;;;0.75;0.75;;;8.10;99.90;;;;;;5040958;28;20120;-41
2023/10/22 05:58:58;;;;;;;6.65;1.33;;;8.00;99.90;;;;;;5038774;28;20033;-40
2023/10/22 06:01:24;;;;;;;0.70;0.70;;;7.90;99.90;;;;;;5041560;28;20132;-39
2023/10/22 06:03:50;;;;;;;1.00;1.00;;;7.80;99.90;;;;;;5042525;28;20115;-35
2023/10/22 06:06:22;;;;;;;1.52;1.02;;;7.90;99.90;;;;;;5041446;28;20032;-34
2023/10/22 06:08:48;;;;;;;1.85;0.98;;;8.00;99.90;;;;;;5023272;28;20056;-34
2023/10/22 06:11:18;;;;;;;0.93;0.93;;;8.00;99.90;;;;;;5040533;28;20097;-33
2023/10/22 06:13:44;;;;;;;1.42;1.10;;;8.00;99.90;;;;;;5043385;28;20025;-34
2023/10/22 06:16:10;;;;;;;0.98;0.98;;;8.00;99.90;;;;;;5040525;28;20379;-35
2023/10/22 06:18:35;;;;;;;1.42;1.10;;;8.00;99.90;;;;;;5042026;28;20025;-39
2023/10/22 06:21:10;;;;;;;2.63;1.17;;;8.00;99.90;;;;;;5039405;28;20429;-32
2023/10/22 06:23:36;;;;;;;1.30;1.20;;;8.00;99.90;;;;;;5042953;28;20025;-34
2023/10/22 06:26:01;;;;;;;2.00;1.35;;;8.00;99.90;;;;;;5045997;28;20029;-36
2023/10/22 06:28:27;;;;;;;1.45;1.30;;;8.00;99.90;;;;;;5045892;28;20428;-30
2023/10/22 06:30:53;;;;;;;1.40;1.30;;;7.90;99.90;;;;;;5044453;28;20124;-32
2023/10/22 06:33:18;;;;;;;1.10;1.10;;;8.00;99.90;;;;;;5046482;28;20715;-32
2023/10/22 06:35:44;;;;;;;1.08;1.08;;;8.00;99.90;;;;;;5045539;28;20032;-31
2023/10/22 06:38:10;;;;;;;1.20;1.10;;;8.00;99.90;;;;;;5041362;28;20797;-31
2023/10/22 06:40:36;;;;;;;1.88;1.10;;;8.00;99.90;;;;;;5044284;28;20033;-31
2023/10/22 06:43:02;;;;;;;1.92;0.93;;;8.10;99.90;;;;;;5044041;28;20029;-30
2023/10/22 06:45:28;;;;;;;0.80;0.80;;;8.00;99.90;;;;;;5042213;28;20033;-37
2023/10/22 06:47:56;;;;;;;3.72;0.93;;;7.90;99.90;;;;;;5040773;28;20037;-31
2023/10/22 06:50:21;;;;;;;2.08;1.10;;;7.90;99.90;;;;;;5041858;28;20021;-30
2023/10/22 06:52:47;;;;;;;0.98;0.98;;;7.80;99.90;;;;;;5043753;28;20021;-33
2023/10/22 06:55:13;;;;;;;1.00;0.95;;;7.70;99.90;;;;;;5045476;28;20083;-31
2023/10/22 06:57:39;;;;;;;5.03;1.33;;;7.70;99.90;;;;;;5042093;28;20032;-30
2023/10/22 07:00:08;;;;;;;0.90;0.90;;;7.60;99.90;;;;;;5045033;28;20098;-31
2023/10/22 07:02:33;;;;;;;1.10;1.10;;;7.70;99.90;;;;;;5044718;28;20029;-31
2023/10/22 07:04:59;;;;;;;0.85;0.85;;;7.70;99.90;;;;;;5044036;28;20040;-31
2023/10/22 07:07:25;;;;;;;0.90;0.90;;;7.70;99.90;;;;;;5043238;28;20041;-31
2023/10/22 07:09:50;;;;;;;1.17;1.00;;;7.80;99.90;;;;;;5043194;28;20625;-30
2023/10/22 07:12:16;;;;;;;1.85;1.33;;;7.80;99.90;;;;;;5042571;28;20051;-33
2023/10/22 07:14:42;;;;;;;1.00;1.00;;;7.80;99.90;;;;;;5042766;28;20040;-40
2023/10/22 07:17:09;;;;;;;1.70;1.50;;;7.90;99.90;;;;;;5041550;28;20036;-41
2023/10/22 07:19:35;;;;;;;1.45;1.35;;;7.90;99.90;;;;;;5041350;28;20092;-41
2023/10/22 07:22:01;;;;;;;1.23;1.20;;;8.00;99.90;;;;;;5040738;28;20127;-39
2023/10/22 07:24:26;;;;;;;2.00;1.80;;;8.00;99.90;;;;;;5040310;28;20041;-34
2023/10/22 07:26:52;;;;;;;1.60;1.50;;;8.00;99.90;;;;;;5041271;28;20640;-40
2023/10/22 07:29:18;;;;;;;3.20;2.00;;;8.00;99.90;;;;;;5040947;28;20032;-40
2023/10/22 07:31:46;;;;;;;2.42;2.00;;;8.10;99.90;;;;;;5040421;28;20029;-31
2023/10/22 07:34:12;;;;;;;4.30;2.20;;;8.10;99.90;;;;;;5042309;28;20052;-32
2023/10/22 07:36:38;;;;;;;2.58;1.90;;;8.20;99.90;;;;;;5039675;28;20021;-33
2023/10/22 07:39:04;;;;;;;1.88;1.77;;;8.20;99.90;;;;;;5025820;28;20697;-35
2023/10/22 07:41:30;;;;;;;3.67;1.95;;;8.20;99.90;;;;;;5040973;28;20146;-33
2023/10/22 07:43:56;;;;;;;1.65;1.55;;;8.30;99.90;;;;;;5045854;28;20033;-35
2023/10/22 07:46:21;;;;;;;2.35;1.90;;;8.30;99.90;;;;;;5043147;28;20086;-33
2023/10/22 07:48:47;;;;;;;1.60;1.50;;;8.50;99.90;;;;;;5044907;28;20036;-36
2023/10/22 07:51:17;;;;;;;1.40;1.30;;;8.50;99.90;;;;;;5045168;28;20021;-34
2023/10/22 07:53:45;;;;;;;3.33;1.60;;;8.70;99.90;;;;;;5044029;28;20041;-34
2023/10/22 07:56:11;;;;;;;3.03;1.33;;;8.90;99.90;;;;;;5040454;28;20029;-33
2023/10/22 07:58:38;;;;;;;2.28;1.23;;;8.90;99.90;;;;;;5046415;28;20516;-35
2023/10/22 08:01:06;;;;;;;3.45;1.40;;;9.10;99.90;;;;;;5040674;28;20037;-34
2023/10/22 08:03:33;;;;;;;2.03;1.20;;;9.20;99.90;;;;;;5047898;28;20038;-32
2023/10/22 08:06:00;;;;;;;2.78;1.35;;;9.30;99.90;;;;;;5059121;28;20490;-32
2023/10/22 08:08:26;;;;;;;1.30;1.20;;;9.50;99.90;;;;;;5052698;28;20540;-33
2023/10/22 08:10:55;;;;;;;0.90;0.90;;;9.70;99.90;;;;;;5054081;28;20021;-32
2023/10/22 08:13:21;;;;;;;3.55;1.40;;;9.80;99.90;;;;;;5037482;28;20033;-33
2023/10/22 08:15:47;;;;;;;1.15;1.10;;;10.00;99.90;;;;;;5034833;28;20066;-34
2023/10/22 08:18:16;;;;;;;1.45;1.00;;;10.10;99.90;;;;;;5034301;28;20112;-34
2023/10/22 08:20:41;;;;;;;1.75;0.80;;;10.30;99.90;;;;;;5019974;28;20490;-33
2023/10/22 08:23:08;;;;;;;1.42;1.02;;;10.40;99.90;;;;;;5040889;28;20028;-31
2023/10/22 08:25:34;;;;;;;1.08;0.98;;;10.60;99.90;;;;;;5047312;28;20045;-30
2023/10/22 08:27:59;;;;;;;1.00;1.00;;;10.60;99.90;;;;;;5046536;28;20516;-34
2023/10/22 08:30:25;;;;;;;1.13;1.00;;;10.80;99.90;;;;;;5046580;28;20032;-30
2023/10/22 08:32:51;;;;;;;0.77;0.77;;;10.90;99.90;;;;;;5045944;28;20860;-34
2023/10/22 08:35:17;;;;;;;0.80;0.80;;;11.00;99.90;;;;;;5044979;28;20498;-33
2023/10/22 08:37:44;;;;;;;2.67;0.93;;;11.10;99.90;;;;;;5046534;28;20048;-31
2023/10/22 08:40:10;;;;;;;1.27;0.93;;;11.20;99.90;;;;;;5046275;28;20032;-30
2023/10/22 08:42:37;;;;;;;4.53;1.13;;;11.30;99.90;;;;;;5045905;28;20070;-37
2023/10/22 08:45:03;;;;;;;2.75;0.70;;;11.50;99.90;;;;;;5041605;28;20032;-40
2023/10/22 08:47:30;;;;;;;1.83;0.82;;;11.60;99.90;;;;;;5042733;28;20170;-38
2023/10/22 08:49:56;;;;;;;3.30;0.70;;;11.70;99.90;;;;;;5043094;28;20044;-39
2023/10/22 08:52:22;;;;;;;1.90;0.70;;;11.80;99.90;;;;;;5040833;28;20083;-37
2023/10/22 08:54:48;;;;;;;0.98;0.80;;;11.80;99.90;;;;;;5039117;28;20029;-38
2023/10/22 08:57:20;;;;;;;1.35;0.60;;;11.90;99.90;;;;;;5040091;28;20751;-39
2023/10/22 08:59:47;;;;;;;1.13;0.63;;;12.00;99.90;;;;;;5039103;28;20029;-38
2023/10/22 09:02:21;;;;;;;0.77;0.60;;;12.10;99.90;;;;;;5039959;28;20033;-39
2023/10/22 09:04:47;;;;;;;1.67;0.77;;;12.20;99.90;;;;;;5046498;28;20036;-38
2023/10/22 09:07:13;;;;;;;0.77;0.77;;;12.30;99.90;;;;;;5045629;28;20036;-36
2023/10/22 09:09:39;;;;;;;0.90;0.60;;;12.40;99.90;;;;;;5041657;28;20497;-39
2023/10/22 09:12:08;;;;;;;0.93;0.55;;;12.50;99.90;;;;;;5041414;28;20465;-39
2023/10/22 09:14:34;;;;;;;0.95;0.80;;;12.60;99.90;;;;;;5044738;28;20029;-36
2023/10/22 09:17:16;;;;;;;0.70;0.70;;;12.60;99.90;;;;;;5039384;28;20029;-36
2023/10/22 09:19:47;;;;;;;0.70;0.70;;;12.60;99.90;;;;;;5038768;28;20119;-39
2023/10/22 09:22:21;;;;;;;0.88;0.70;;;12.70;99.90;;;;;;5042285;28;20057;-39
2023/10/22 09:25:06;;;;;;;1.80;0.77;;;12.90;99.90;;;;;;5041009;28;20554;-38
2023/10/22 09:27:32;;;;;;;1.73;0.70;;;13.00;99.90;;;;;;5043434;28;20449;-40
2023/10/22 09:30:00;;;;;;;0.80;0.70;;;13.00;99.90;;;;;;5040964;28;20036;-38
2023/10/22 09:32:25;;;;;;;1.85;0.70;;;13.10;99.90;;;;;;5045684;28;21786;-40
2023/10/22 09:34:52;;;;;;;0.73;0.73;;;13.10;99.90;;;;;;5046606;28;20018;-41
2023/10/22 09:37:18;;;;;;;0.52;0.52;;;13.20;99.90;;;;;;5044553;28;20033;-39
2023/10/22 09:39:45;;;;;;;3.45;1.27;;;13.30;99.90;;;;;;5044217;28;20517;-38
2023/10/22 09:42:12;;;;;;;1.90;0.70;;;13.40;99.90;;;;;;5045443;28;20079;-39
2023/10/22 09:44:44;;;;;;;1.10;0.60;;;13.30;99.90;;;;;;5045567;28;20033;-40
2023/10/22 09:47:17;;;;;;;0.70;0.70;;;13.30;99.90;;;;;;5043097;28;20701;-38
2023/10/22 09:49:47;;;;;;;2.03;0.80;;;13.40;99.90;;;;;;5043954;28;20017;-40
2023/10/22 09:52:15;;;;;;;2.92;1.00;;;13.40;99.90;;;;;;5042110;28;20017;-30
2023/10/22 09:54:41;;;;;;;2.58;0.70;;;13.40;99.90;;;;;;5046214;28;20037;-31
2023/10/22 09:57:14;;;;;;;0.80;0.80;;;13.50;99.90;;;;;;5038734;28;20458;-30
2023/10/22 09:59:41;;;;;;;0.80;0.60;;;13.40;99.90;;;;;;5045813;28;20032;-30
2023/10/22 10:02:17;;;;;;;2.80;0.65;;;13.50;99.90;;;;;;5045061;28;20079;-33
2023/10/22 10:04:44;;;;;;;2.90;0.60;;;13.60;99.90;;;;;;5040302;28;20033;-34
2023/10/22 10:07:10;;;;;;;0.95;0.65;;;13.70;99.90;;;;;;5041137;28;20262;-31
2023/10/22 10:09:36;;;;;;;1.58;0.80;;;13.70;99.90;;;;;;5044682;28;20519;-37
2023/10/22 10:12:12;;;;;;;1.65;0.68;;;13.80;99.90;;;;;;5040411;28;20021;-31
2023/10/22 10:14:45;;;;;;;0.43;0.43;;;13.80;99.90;;;;;;5043444;28;20029;-30
2023/10/22 10:17:12;;;;;;;0.68;0.47;;;13.90;99.90;;;;;;5043143;28;20112;-34
2023/10/22 10:19:37;;;;;;;0.80;0.50;;;14.00;99.90;;;;;;5041481;28;20035;-35
2023/10/22 10:22:04;;;;;;;2.17;0.50;;;14.00;99.90;;;;;;5044637;28;20033;-31
2023/10/22 10:24:30;;;;;;;1.45;0.60;;;14.00;99.90;;;;;;5044308;28;20106;-32
2023/10/22 10:26:56;;;;;;;2.75;0.60;;;14.00;99.90;;;;;;5043433;28;20049;-31
2023/10/22 10:29:23;;;;;;;8.20;1.20;;;14.10;99.90;;;;;;5040752;28;20510;-30
2023/10/22 10:31:52;;;;;;;1.02;0.60;;;14.10;99.90;;;;;;5043747;28;20029;-31
2023/10/22 10:34:39;;;;;;;1.55;0.80;;;14.10;99.90;;;;;;5044333;28;20506;-33
2023/10/22 10:37:12;;;;;;;2.95;0.65;;;14.20;99.90;;;;;;5042964;28;20037;-32
2023/10/22 10:39:40;;;;;;;1.95;0.60;;;14.20;99.90;;;;;;5042479;28;20094;-31
2023/10/22 10:42:07;;;;;;;0.30;0.30;;;14.20;99.90;;;;;;5040709;28;20063;-34
2023/10/22 10:44:53;;;;;;;1.27;0.98;;;14.20;99.90;;;;;;5041478;28;20036;-32
2023/10/22 10:47:21;;;;;;;2.65;0.60;;;14.00;99.90;;;;;;5040044;28;20498;-32
2023/10/22 10:50:03;;;;;;;2.38;0.68;;;13.90;99.90;;;;;;5040442;28;20474;-32
2023/10/22 10:52:34;;;;;;;2.92;0.50;;;13.90;99.90;;;;;;5041703;28;20032;-34
2023/10/22 10:55:18;;;;;;;0.90;0.38;;;14.10;99.90;;;;;;5040056;28;20125;-34
2023/10/22 10:57:49;;;;;;;2.03;0.50;;;14.20;99.90;;;;;;5043201;28;20550;-34
2023/10/22 11:00:21;;;;;;;0.98;0.73;;;14.20;99.90;;;;;;5042472;28;20800;-37
2023/10/22 11:02:51;;;;;;;1.70;0.60;;;14.20;99.90;;;;;;5042472;28;20045;-33
2023/10/22 11:05:29;;;;;;;0.80;0.40;;;14.10;99.90;;;;;;5042297;28;20024;-33
2023/10/22 11:07:55;;;;;;;;;;;14.20;99.90;;;;;;5040658;28;20361;-32
2023/10/22 11:10:21;;;;;;;2.17;0.50;;;14.20;99.90;;;;;;5042207;28;19923;-32
2023/10/22 11:12:46;;;;;;;0.80;0.50;;;14.20;99.90;;;;;;5042831;28;20033;-35
2023/10/22 11:15:13;;;;;;;1.05;0.60;;;14.20;99.90;;;;;;5039971;28;20471;-41
2023/10/22 11:17:45;;;;;;;0.55;0.47;;;14.20;99.90;;;;;;5035942;28;20044;-41
2023/10/22 11:20:13;;;;;;;3.35;0.70;;;14.20;99.90;;;;;;5044134;28;20119;-38
2023/10/22 11:22:39;;;;;;;1.52;0.63;;;14.00;99.90;;;;;;5047172;28;20044;-30
2023/10/22 11:25:08;;;;;;;0.38;0.35;;;13.90;99.90;;;;;;5046645;28;20052;-33
2023/10/22 11:27:36;;;;;;;0.50;0.47;;;13.80;99.90;;;;;;5045910;28;20070;-32
2023/10/22 11:30:02;;;;;;;1.10;0.40;;;13.70;99.90;;;;;;5048458;28;20386;-30
2023/10/22 11:32:28;;;;;;;0.40;0.40;;;13.70;99.90;;;;;;5045500;28;20438;-31
2023/10/22 11:35:02;;;;;;;2.38;0.73;;;13.70;99.90;;;;;;5045599;28;20032;-33
2023/10/22 11:37:38;;;;;;;2.13;0.75;;;13.90;99.90;;;;;;5048553;28;20444;-34
2023/10/22 11:40:29;;;;;;;1.00;0.57;;;14.20;99.90;;;;;;5047307;28;20501;-33
2023/10/22 11:43:00;;;;;;;0.75;0.50;;;14.50;99.90;;;;;;5044978;28;20269;-33
2023/10/22 11:45:31;;;;;;;1.85;0.47;;;14.60;99.90;;;;;;5044815;28;20033;-31
2023/10/22 11:48:23;;;;;;;0.98;0.80;;;14.80;99.90;;;;;;5047037;28;20037;-32
2023/10/22 11:51:01;;;;;;;2.00;0.45;;;14.70;99.90;;;;;;5046973;28;20025;-33
2023/10/22 11:53:42;;;;;;;1.65;0.60;;;14.70;99.90;;;;;;5047066;28;20037;-34
2023/10/22 11:56:08;;;;;;;0.90;0.50;;;14.60;99.90;;;;;;5047377;28;20044;-35
2023/10/22 11:58:34;;;;;;;0.47;0.47;;;14.60;99.90;;;;;;5043562;28;20044;-35
2023/10/22 12:01:00;;;;;;;1.63;0.55;;;14.60;99.90;;;;;;5042203;28;20048;-32
2023/10/22 12:03:25;;;;;;;2.33;0.70;;;14.60;99.90;;;;;;5047596;28;20032;-33
2023/10/22 12:05:51;;;;;;;1.77;0.52;;;14.60;99.90;;;;;;5046854;28;20029;-32
2023/10/22 12:08:17;;;;;;;0.98;0.43;;;14.40;99.90;;;;;;5046733;28;20044;-34
2023/10/22 12:10:43;;;;;;;1.33;0.68;;;14.50;99.90;;;;;;5047760;28;20028;-34
2023/10/22 12:13:10;;;;;;;2.63;0.88;;;14.60;99.90;;;;;;5046062;28;20025;-39
2023/10/22 12:15:37;;;;;;;3.33;1.08;;;14.80;99.90;;;;;;5039624;28;20029;-35
2023/10/22 12:18:03;;;;;;;4.68;1.27;;;15.00;99.90;;;;;;5041914;28;20675;-41
2023/10/22 12:20:28;;;;;;;2.40;0.65;;;15.30;99.90;;;;;;5043317;28;20482;-41
2023/10/22 12:22:54;;;;;;;0.85;0.50;;;15.40;99.90;;;;;;5048320;28;20063;-41
2023/10/22 12:25:20;;;;;;;2.25;0.45;;;15.40;99.90;;;;;;5045999;28;20053;-36
2023/10/22 12:27:45;;;;;;;0.60;0.60;;;15.50;99.90;;;;;;5044068;28;20040;-38
2023/10/22 12:30:11;;;;;;;1.65;0.55;;;15.50;99.90;;;;;;5044183;28;20033;-39
2023/10/22 12:32:37;;;;;;;1.23;0.60;;;15.30;99.90;;;;;;5042031;28;20033;-36
2023/10/22 12:35:04;;;;;;;1.23;0.60;;;15.30;99.90;;;;;;5044520;28;20537;-40
2023/10/22 12:37:30;;;;;;;2.15;0.52;;;15.20;99.90;;;;;;5041030;28;20032;-38
2023/10/22 12:39:56;;;;;;;0.85;0.60;;;15.20;99.90;;;;;;5045518;28;20631;-41
2023/10/22 12:42:22;;;;;;;1.45;0.47;;;15.30;99.90;;;;;;5044144;28;20033;-41
2023/10/22 12:44:48;;;;;;;0.40;0.40;;;15.30;99.90;;;;;;5042152;28;20044;-40
2023/10/22 12:47:13;;;;;;;3.75;0.75;;;15.20;99.90;;;;;;5043502;28;20159;-40
2023/10/22 12:49:43;;;;;;;1.65;0.63;;;15.30;99.90;;;;;;5043177;28;20545;-39
2023/10/22 12:52:15;;;;;;;3.13;0.98;;;15.30;99.90;;;;;;5045382;28;20025;-41
2023/10/22 12:54:43;;;;;;;2.85;0.70;;;15.20;99.90;;;;;;5041793;28;20033;-41